Time;durP1;ratioP1;P1;durP2;ratioP2;P2;SDS_P1;SDS_P2;PMS_P1;PMS_P2;Temp;Humidity;BMP_temperature;BMP_pressure;BME280_temperature;BME280_humidity;BME280_pressure;Samples;Min_cycle;Max_cycle;Signal;HPM_P1;HPM_P2
2023/12/20 00:01:03;;;;;;;49.42;26.85;;;;;;;5.83;85.98;100299.75;5141904;27;20307;-64
2023/12/20 00:03:29;;;;;;;49.97;26.05;;;;;;;5.92;86.87;100299.91;5141383;27;20377;-64
2023/12/20 00:05:55;;;;;;;61.08;30.92;;;;;;;5.83;85.86;100295.31;5141532;27;20035;-66
2023/12/20 00:08:20;;;;;;;36.53;20.65;;;;;;;5.79;85.01;100296.50;5141512;27;20336;-64
2023/12/20 00:10:46;;;;;;;53.60;26.67;;;;;;;5.69;82.43;100295.53;5141597;27;20043;-66
2023/12/20 00:13:11;;;;;;;93.53;44.95;;;;;;;5.59;80.29;100289.31;5141027;27;20047;-66
2023/12/20 00:15:37;;;;;;;113.38;49.90;;;;;;;5.56;80.31;100297.44;5141434;27;20246;-66
2023/12/20 00:18:02;;;;;;;98.53;45.40;;;;;;;5.57;81.67;100288.59;5140948;27;20046;-64
2023/12/20 00:20:29;;;;;;;61.63;31.40;;;;;;;5.56;83.67;100279.88;5140766;27;20039;-64
2023/12/20 00:22:57;;;;;;;39.78;21.55;;;;;;;5.57;85.15;100284.19;5140128;27;20039;-64
2023/12/20 00:25:23;;;;;;;34.90;21.02;;;;;;;5.47;86.81;100282.38;5140249;27;20035;-63
2023/12/20 00:27:48;;;;;;;32.22;19.35;;;;;;;5.53;87.29;100279.28;5140644;27;20051;-66
2023/12/20 00:30:13;;;;;;;33.17;19.77;;;;;;;5.37;87.78;100277.81;5141085;27;20096;-63
2023/12/20 00:32:39;;;;;;;30.23;18.85;;;;;;;5.24;89.59;100277.06;5141323;27;20195;-66
2023/12/20 00:35:04;;;;;;;54.28;27.52;;;;;;;5.28;89.31;100269.78;5140438;27;20240;-66
2023/12/20 00:37:30;;;;;;;68.45;31.00;;;;;;;5.33;89.48;100262.41;5140610;27;20046;-64
2023/12/20 00:39:55;;;;;;;48.60;24.52;;;;;;;5.41;89.25;100254.78;5140832;27;20043;-65
2023/12/20 00:42:21;;;;;;;41.88;24.70;;;;;;;5.44;88.85;100249.31;5139869;27;20043;-66
2023/12/20 00:44:46;;;;;;;41.67;21.27;;;;;;;5.45;89.36;100251.81;5139391;27;20038;-66
2023/12/20 00:47:13;;;;;;;56.97;29.15;;;;;;;5.45;89.59;100253.59;5139694;27;20049;-64
2023/12/20 00:49:38;;;;;;;39.83;21.60;;;;;;;5.45;88.91;100251.81;5140709;27;20092;-67
2023/12/20 00:52:04;;;;;;;35.55;20.55;;;;;;;5.46;89.53;100252.66;5140014;27;20637;-66
2023/12/20 00:54:30;;;;;;;29.35;17.85;;;;;;;5.52;89.77;100251.34;5139936;27;20041;-66
2023/12/20 00:56:56;;;;;;;27.67;17.38;;;;;;;5.48;89.32;100250.75;5139172;27;20045;-67
2023/12/20 00:59:21;;;;;;;28.35;14.65;;;;;;;5.34;90.12;100249.16;5138798;27;20058;-67
2023/12/20 01:01:46;;;;;;;22.67;14.82;;;;;;;5.27;91.01;100244.50;5139348;27;20039;-64
2023/12/20 01:04:12;;;;;;;38.10;22.58;;;;;;;5.27;91.01;100242.69;5138953;27;20037;-64
2023/12/20 01:06:37;;;;;;;38.10;27.80;;;;;;;5.33;90.38;100238.78;5139717;27;20043;-66
2023/12/20 01:09:03;;;;;;;38.88;25.80;;;;;;;5.23;90.61;100228.13;5139569;27;20069;-67
2023/12/20 01:11:28;;;;;;;37.90;25.88;;;;;;;5.30;91.05;100239.00;5139494;27;20236;-66
2023/12/20 01:13:53;;;;;;;37.47;28.42;;;;;;;5.04;90.06;100223.41;5139003;27;20034;-64
2023/12/20 01:16:19;;;;;;;32.88;20.92;;;;;;;4.56;93.09;100224.41;5139087;27;20035;-64
2023/12/20 01:18:45;;;;;;;30.08;18.83;;;;;;;4.68;93.12;100224.34;5138955;27;20046;-64
2023/12/20 01:21:10;;;;;;;25.10;17.30;;;;;;;4.75;93.15;100219.50;5139494;27;20262;-64
2023/12/20 01:23:35;;;;;;;31.92;18.88;;;;;;;4.77;92.90;100210.56;5139364;27;20038;-66
2023/12/20 01:26:02;;;;;;;23.20;15.77;;;;;;;4.72;92.36;100217.09;5138986;27;20039;-66
2023/12/20 01:28:27;;;;;;;25.98;14.95;;;;;;;4.66;93.21;100201.81;5138803;27;20038;-64
2023/12/20 01:30:53;;;;;;;21.30;12.75;;;;;;;4.65;93.30;100211.47;5138972;27;20043;-66
2023/12/20 01:33:18;;;;;;;21.42;13.52;;;;;;;4.65;92.98;100205.38;5138419;27;20046;-66
2023/12/20 01:35:44;;;;;;;23.25;14.30;;;;;;;4.63;92.82;100197.63;5138936;27;20028;-66
2023/12/20 01:38:09;;;;;;;30.27;20.75;;;;;;;4.71;92.23;100195.28;5138565;27;20043;-66
2023/12/20 01:40:34;;;;;;;36.40;26.63;;;;;;;4.81;91.53;100198.88;5139634;27;20316;-66
2023/12/20 01:43:09;;;;;;;30.33;23.55;;;;;;;4.96;90.58;100194.28;5139697;27;20129;-67
2023/12/20 01:45:35;;;;;;;22.10;17.77;;;;;;;4.93;90.04;100191.03;5139760;27;20100;-64
2023/12/20 01:48:02;;;;;;;19.38;11.38;;;;;;;4.77;91.66;100180.88;5139435;27;20071;-64
2023/12/20 01:50:28;;;;;;;20.30;13.48;;;;;;;4.48;92.46;100181.22;5139896;27;20106;-66
2023/12/20 01:52:57;;;;;;;21.95;12.50;;;;;;;4.61;92.36;100180.34;5139544;27;20043;-66
2023/12/20 01:55:24;;;;;;;17.98;11.20;;;;;;;4.86;91.23;100184.59;5139257;27;20042;-66
2023/12/20 01:57:50;;;;;;;15.35;9.63;;;;;;;4.94;90.84;100174.34;5139653;27;20039;-67
2023/12/20 02:00:16;;;;;;;16.50;10.05;;;;;;;4.99;90.96;100172.22;5139174;27;20055;-66
2023/12/20 02:02:44;;;;;;;15.02;10.48;;;;;;;5.05;90.86;100172.59;5139058;27;20259;-64
2023/12/20 02:05:10;;;;;;;18.35;11.02;;;;;;;5.10;90.29;100151.22;5139053;27;20083;-65
2023/12/20 02:07:35;;;;;;;15.63;10.93;;;;;;;5.24;91.37;100158.91;5138526;27;20345;-65
2023/12/20 02:10:02;;;;;;;17.98;10.35;;;;;;;5.30;90.91;100144.47;5138344;27;20034;-64
2023/12/20 02:12:27;;;;;;;18.33;11.40;;;;;;;5.21;87.76;100139.94;5138374;27;20035;-63
2023/12/20 02:14:53;;;;;;;19.88;12.98;;;;;;;5.20;85.02;100149.59;5138374;27;20329;-66
2023/12/20 02:17:19;;;;;;;17.83;12.35;;;;;;;5.21;85.44;100146.03;5138696;27;20066;-66
2023/12/20 02:19:45;;;;;;;22.60;11.55;;;;;;;5.21;85.81;100143.41;5138697;27;20039;-67
2023/12/20 02:22:11;;;;;;;17.20;11.65;;;;;;;5.22;86.39;100133.75;5139147;27;20084;-65
2023/12/20 02:24:36;;;;;;;17.10;11.68;;;;;;;5.26;85.74;100133.38;5139132;27;20148;-64
2023/12/20 02:27:02;;;;;;;16.33;10.45;;;;;;;5.33;86.29;100139.81;5139066;27;20045;-66
2023/12/20 02:29:28;;;;;;;22.42;11.40;;;;;;;5.28;86.73;100138.50;5138848;27;20027;-66
2023/12/20 02:31:53;;;;;;;18.25;11.73;;;;;;;5.35;86.43;100142.34;5139097;27;20039;-66
2023/12/20 02:34:19;;;;;;;20.40;12.38;;;;;;;5.34;84.43;100135.41;5138692;27;20050;-66
2023/12/20 02:36:44;;;;;;;20.88;13.23;;;;;;;5.22;82.71;100133.75;5138418;27;20027;-66
2023/12/20 02:39:10;;;;;;;18.75;12.35;;;;;;;5.11;83.88;100129.28;5138078;27;20377;-66
2023/12/20 02:41:35;;;;;;;20.33;11.85;;;;;;;5.18;84.90;100127.84;5138437;27;20041;-65
2023/12/20 02:44:02;;;;;;;17.17;12.32;;;;;;;5.14;85.48;100124.63;5138420;27;20039;-64
2023/12/20 02:46:27;;;;;;;20.15;12.00;;;;;;;5.13;85.41;100125.59;5138788;27;20076;-65
2023/12/20 02:48:52;;;;;;;21.60;12.05;;;;;;;5.08;85.92;100126.91;5138765;27;20039;-66
2023/12/20 02:51:18;;;;;;;21.38;12.57;;;;;;;4.98;86.43;100126.75;5139237;27;20317;-66
2023/12/20 02:53:43;;;;;;;21.70;14.32;;;;;;;4.87;86.79;100125.91;5138531;27;20041;-64
2023/12/20 02:56:09;;;;;;;23.27;13.55;;;;;;;4.86;87.32;100106.72;5138141;27;20047;-64
2023/12/20 02:58:34;;;;;;;21.05;12.95;;;;;;;4.59;88.13;100108.78;5138282;27;20050;-66
2023/12/20 03:00:59;;;;;;;22.77;14.75;;;;;;;4.78;85.60;100120.41;5138388;27;20051;-64
2023/12/20 03:03:25;;;;;;;27.92;14.68;;;;;;;4.78;85.29;100115.16;5138963;27;20039;-64
2023/12/20 03:05:50;;;;;;;21.80;13.45;;;;;;;4.86;86.20;100119.00;5139516;27;20367;-64
2023/12/20 03:08:16;;;;;;;22.80;13.75;;;;;;;4.77;87.68;100112.66;5138860;27;20552;-64
2023/12/20 03:10:41;;;;;;;21.20;12.63;;;;;;;4.95;87.50;100107.78;5138947;27;20046;-64
2023/12/20 03:13:06;;;;;;;21.73;12.40;;;;;;;5.04;86.90;100102.66;5138872;27;20038;-64
2023/12/20 03:15:32;;;;;;;19.00;11.57;;;;;;;4.96;86.80;100104.22;5138423;27;20099;-66
2023/12/20 03:17:59;;;;;;;17.27;12.27;;;;;;;4.73;86.53;100108.59;5138822;27;20035;-66
2023/12/20 03:20:26;;;;;;;20.55;13.00;;;;;;;4.66;84.38;100102.13;5138634;27;20027;-64
2023/12/20 03:22:51;;;;;;;22.38;14.60;;;;;;;4.52;82.54;100104.97;5139405;27;20232;-64
2023/12/20 03:25:17;;;;;;;23.65;15.40;;;;;;;4.20;83.17;100105.56;5142471;27;20070;-64
2023/12/20 03:27:42;;;;;;;28.83;16.83;;;;;;;4.00;86.38;100101.75;5142384;27;20043;-64
2023/12/20 03:30:08;;;;;;;24.40;15.30;;;;;;;4.10;85.90;100099.28;5142640;27;20043;-64
2023/12/20 03:32:33;;;;;;;24.00;14.70;;;;;;;4.06;85.94;100100.47;5141999;27;20410;-65
2023/12/20 03:34:59;;;;;;;21.58;14.05;;;;;;;4.12;85.98;100102.63;5141439;27;20042;-64
2023/12/20 03:37:24;;;;;;;20.75;13.45;;;;;;;4.25;86.25;100098.19;5142669;27;20038;-66
2023/12/20 03:39:50;;;;;;;19.10;12.85;;;;;;;4.25;85.83;100105.22;5141915;27;20309;-64
2023/12/20 03:42:15;;;;;;;25.60;13.07;;;;;;;4.27;83.50;100098.09;5141260;27;20155;-64
2023/12/20 03:44:41;;;;;;;24.30;15.63;;;;;;;4.20;85.05;100087.22;5141326;27;20033;-64
2023/12/20 03:47:06;;;;;;;22.25;14.55;;;;;;;4.21;85.99;100085.44;5141245;27;20050;-66
2023/12/20 03:49:32;;;;;;;22.05;13.95;;;;;;;4.31;85.76;100089.03;5141713;27;20027;-64
2023/12/20 03:51:57;;;;;;;22.85;15.93;;;;;;;4.42;85.11;100087.28;5140924;27;20043;-66
2023/12/20 03:54:24;;;;;;;24.02;14.93;;;;;;;4.40;85.01;100078.69;5140596;27;20037;-63
2023/12/20 03:56:50;;;;;;;24.35;14.40;;;;;;;4.46;85.75;100087.91;5141511;27;20095;-63
2023/12/20 03:59:16;;;;;;;28.23;16.85;;;;;;;4.47;85.97;100084.31;5141340;27;20026;-66
2023/12/20 04:01:47;;;;;;;27.35;15.90;;;;;;;4.38;87.07;100091.09;5141799;27;20116;-64
2023/12/20 04:04:13;;;;;;;24.88;16.63;;;;;;;4.48;86.20;100086.84;5140857;27;20043;-65
2023/12/20 04:06:39;;;;;;;21.48;13.73;;;;;;;4.54;83.92;100092.56;5140553;27;20038;-66
2023/12/20 04:09:04;;;;;;;29.67;16.92;;;;;;;4.55;84.09;100079.34;5140582;27;20039;-63
2023/12/20 04:11:30;;;;;;;25.80;16.20;;;;;;;4.60;83.98;100092.94;5140614;27;20278;-63
2023/12/20 04:13:55;;;;;;;29.55;17.50;;;;;;;4.64;84.73;100086.50;5140734;27;20047;-66
2023/12/20 04:16:21;;;;;;;28.20;17.40;;;;;;;4.66;84.53;100083.78;5141008;27;20039;-66
2023/12/20 04:18:46;;;;;;;31.13;17.60;;;;;;;4.68;83.62;100080.09;5140150;27;20047;-66
2023/12/20 04:21:11;;;;;;;24.00;14.95;;;;;;;4.55;81.15;100079.34;5141377;27;20080;-66
2023/12/20 04:23:37;;;;;;;30.73;16.48;;;;;;;4.53;82.91;100075.16;5141090;27;20228;-64
2023/12/20 04:26:02;;;;;;;22.50;13.90;;;;;;;4.14;83.26;100067.50;5141082;27;20038;-64
2023/12/20 04:28:30;;;;;;;24.48;16.60;;;;;;;4.05;83.92;100068.19;5139988;27;20098;-64
2023/12/20 04:30:56;;;;;;;27.10;15.48;;;;;;;4.26;83.91;100065.78;5140418;27;20027;-64
2023/12/20 04:33:21;;;;;;;25.30;15.38;;;;;;;4.32;82.60;100067.97;5139659;27;20076;-67
2023/12/20 04:35:47;;;;;;;23.88;13.95;;;;;;;4.38;81.00;100066.66;5139932;27;20035;-64
2023/12/20 04:38:12;;;;;;;20.08;13.32;;;;;;;4.42;80.59;100078.59;5140266;27;20031;-66
2023/12/20 04:40:39;;;;;;;25.90;15.35;;;;;;;4.38;79.57;100072.75;5140309;27;20038;-66
2023/12/20 04:43:04;;;;;;;27.50;15.45;;;;;;;4.31;80.00;100070.69;5140149;27;20130;-64
2023/12/20 04:45:29;;;;;;;24.60;15.15;;;;;;;4.31;80.82;100057.59;5141027;27;20321;-64
2023/12/20 04:47:55;;;;;;;27.77;17.40;;;;;;;4.25;80.78;100051.00;5140493;27;20051;-66
2023/12/20 04:50:21;;;;;;;25.50;16.90;;;;;;;4.23;81.74;100054.69;5140497;27;20109;-64
2023/12/20 04:52:47;;;;;;;27.40;16.83;;;;;;;4.29;82.25;100062.09;5140154;27;20035;-64
2023/12/20 04:55:12;;;;;;;30.88;18.88;;;;;;;4.32;82.00;100059.25;5140781;27;20102;-66
2023/12/20 04:57:37;;;;;;;30.58;18.40;;;;;;;4.35;81.91;100061.66;5140307;27;20035;-66
2023/12/20 05:00:04;;;;;;;25.00;16.08;;;;;;;4.36;81.76;100056.28;5140337;27;20061;-66
2023/12/20 05:02:30;;;;;;;24.17;16.27;;;;;;;4.33;80.94;100055.69;5140405;27;20314;-63
2023/12/20 05:04:55;;;;;;;32.90;18.02;;;;;;;4.26;80.65;100057.94;5140695;27;20039;-65
2023/12/20 05:07:20;;;;;;;31.58;17.95;;;;;;;4.28;81.64;100060.44;5139649;27;20087;-63
2023/12/20 05:09:46;;;;;;;30.77;19.50;;;;;;;4.33;81.80;100060.94;5140722;27;20035;-63
2023/12/20 05:12:11;;;;;;;35.78;20.83;;;;;;;4.41;81.72;100050.69;5140654;27;20731;-65
2023/12/20 05:14:37;;;;;;;41.03;23.80;;;;;;;4.44;81.48;100035.56;5139154;27;20027;-66
2023/12/20 05:17:03;;;;;;;40.00;24.27;;;;;;;4.45;80.82;100031.16;5139537;27;20035;-64
2023/12/20 05:19:28;;;;;;;46.22;27.13;;;;;;;4.39;82.29;100029.00;5139239;27;20031;-65
2023/12/20 05:21:54;;;;;;;49.80;26.80;;;;;;;4.35;83.43;100032.81;5138785;27;20268;-66
2023/12/20 05:24:19;;;;;;;33.55;20.70;;;;;;;4.24;81.90;100036.22;5138867;27;20288;-63
2023/12/20 05:26:44;;;;;;;38.78;21.40;;;;;;;4.31;81.13;100028.75;5139579;27;20080;-64
2023/12/20 05:29:10;;;;;;;45.38;25.17;;;;;;;4.28;81.10;100027.19;5139419;27;20214;-64
2023/12/20 05:31:35;;;;;;;44.55;27.20;;;;;;;4.18;81.64;100015.72;5140176;27;20035;-66
2023/12/20 05:34:01;;;;;;;38.47;22.52;;;;;;;4.09;81.65;100030.31;5139149;27;20035;-64
2023/12/20 05:36:26;;;;;;;44.08;26.02;;;;;;;4.12;81.67;100021.41;5140395;27;20043;-64
2023/12/20 05:38:51;;;;;;;50.42;29.45;;;;;;;4.22;82.02;100024.19;5139845;27;20324;-64
2023/12/20 05:41:17;;;;;;;36.90;21.50;;;;;;;4.20;79.45;100015.59;5139204;27;20027;-66
2023/12/20 05:43:42;;;;;;;31.00;18.70;;;;;;;4.06;78.54;100014.00;5139799;27;20039;-66
2023/12/20 05:46:11;;;;;;;32.55;19.42;;;;;;;3.99;79.25;100005.75;5138970;27;20039;-66
2023/12/20 05:48:36;;;;;;;32.40;19.25;;;;;;;3.83;79.39;100013.06;5139072;27;20094;-66
2023/12/20 05:51:02;;;;;;;42.53;24.83;;;;;;;3.82;79.17;100000.91;5138280;27;20087;-66
2023/12/20 05:53:27;;;;;;;44.35;24.45;;;;;;;3.72;80.85;99999.91;5138903;27;20039;-64
2023/12/20 05:55:53;;;;;;;27.38;15.20;;;;;;;3.79;81.50;100007.22;5139274;27;20043;-64
2023/12/20 05:58:18;;;;;;;21.67;13.57;;;;;;;3.84;81.63;99999.03;5139434;27;20042;-66
2023/12/20 06:00:43;;;;;;;22.20;13.93;;;;;;;3.85;81.31;100000.69;5138442;27;20049;-64
2023/12/20 06:03:09;;;;;;;24.48;14.20;;;;;;;3.75;82.28;100000.53;5138783;27;20337;-66
2023/12/20 06:05:34;;;;;;;26.80;14.85;;;;;;;3.85;82.74;100003.31;5138980;27;20316;-65
2023/12/20 06:08:02;;;;;;;25.45;15.95;;;;;;;3.94;82.60;99997.41;5138785;27;20053;-66
2023/12/20 06:10:28;;;;;;;39.00;24.38;;;;;;;4.04;82.33;99994.91;5138380;27;20042;-64
2023/12/20 06:12:54;;;;;;;49.55;27.38;;;;;;;4.12;82.27;99988.16;5139002;27;20035;-63
2023/12/20 06:15:19;;;;;;;31.30;18.50;;;;;;;4.09;82.26;99982.31;5139376;27;20043;-64
2023/12/20 06:17:46;;;;;;;33.92;16.02;;;;;;;4.08;81.96;99985.88;5138440;27;20046;-66
2023/12/20 06:20:12;;;;;;;32.67;18.65;;;;;;;4.13;82.16;99991.63;5138390;27;20038;-65
2023/12/20 06:22:38;;;;;;;33.90;19.50;;;;;;;4.20;82.54;99984.16;5138199;27;20100;-67
2023/12/20 06:25:04;;;;;;;34.22;18.42;;;;;;;4.19;82.36;99988.56;5138783;27;20042;-63
2023/12/20 06:27:32;;;;;;;34.60;19.45;;;;;;;4.27;83.07;99985.38;5138579;27;20088;-64
2023/12/20 06:29:57;;;;;;;48.17;28.17;;;;;;;4.38;82.80;99996.72;5138703;27;20035;-66
2023/12/20 06:32:24;;;;;;;51.70;30.75;;;;;;;4.38;83.34;99991.47;5138358;27;20058;-66
2023/12/20 06:34:49;;;;;;;85.63;41.30;;;;;;;4.33;85.13;99990.16;5138778;27;20034;-66
2023/12/20 06:37:15;;;;;;;60.00;36.03;;;;;;;4.38;85.45;99983.59;5139028;27;20027;-66
2023/12/20 06:39:40;;;;;;;69.20;39.75;;;;;;;4.37;85.92;99984.56;5138764;27;20058;-66
2023/12/20 06:42:06;;;;;;;69.00;36.53;;;;;;;4.31;85.73;99984.19;5138493;27;20047;-64
2023/12/20 06:44:31;;;;;;;59.50;33.75;;;;;;;4.33;87.05;99998.00;5138396;27;20035;-66
2023/12/20 06:46:57;;;;;;;67.70;38.83;;;;;;;4.25;87.13;99985.47;5138843;27;20039;-66
2023/12/20 06:49:23;;;;;;;72.18;42.15;;;;;;;4.34;88.05;99995.28;5138862;27;20043;-64
2023/12/20 06:51:48;;;;;;;66.93;39.80;;;;;;;4.38;87.42;99998.50;5139120;27;20284;-64
2023/12/20 06:54:14;;;;;;;63.33;36.92;;;;;;;4.41;88.01;99998.25;5137978;27;20035;-63
2023/12/20 06:56:39;;;;;;;56.95;34.20;;;;;;;4.43;88.29;99991.94;5119716;27;20031;-66
2023/12/20 06:59:04;;;;;;;51.25;29.98;;;;;;;4.61;88.37;99989.69;5141865;27;20830;-64
2023/12/20 07:01:30;;;;;;;47.70;30.17;;;;;;;4.62;88.21;99983.50;5141317;27;20095;-67
2023/12/20 07:03:55;;;;;;;48.78;30.00;;;;;;;4.75;88.72;99986.00;5140990;27;20289;-66
2023/12/20 07:06:21;;;;;;;46.30;28.58;;;;;;;4.87;88.07;99985.06;5141297;27;20038;-64
2023/12/20 07:08:46;;;;;;;41.85;23.85;;;;;;;5.02;88.88;99977.78;5141615;27;20091;-64
2023/12/20 07:11:12;;;;;;;53.00;30.35;;;;;;;5.21;88.49;99985.06;5142178;27;20582;-67
2023/12/20 07:13:37;;;;;;;49.92;28.60;;;;;;;5.39;88.01;99975.72;5141550;27;20034;-64
2023/12/20 07:16:03;;;;;;;46.53;28.15;;;;;;;5.51;87.82;99966.00;5141483;27;20261;-64
2023/12/20 07:18:28;;;;;;;53.60;29.20;;;;;;;5.69;87.27;99961.88;5141950;27;20092;-65
2023/12/20 07:20:55;;;;;;;53.90;28.60;;;;;;;5.87;86.49;99956.91;5141500;27;20046;-64
2023/12/20 07:23:21;;;;;;;45.15;29.08;;;;;;;5.80;86.43;99950.47;5141148;27;20037;-64
2023/12/20 07:25:46;;;;;;;41.50;27.05;;;;;;;5.70;87.31;99958.28;5142050;27;20024;-67
2023/12/20 07:28:12;;;;;;;30.23;20.08;;;;;;;5.78;88.16;99955.88;5139877;27;20043;-65
2023/12/20 07:30:37;;;;;;;39.65;21.10;;;;;;;5.78;88.16;99953.25;5141136;27;20042;-66
2023/12/20 07:33:03;;;;;;;24.33;16.15;;;;;;;5.89;87.90;99955.84;5140698;27;20027;-64
2023/12/20 07:35:28;;;;;;;26.30;16.38;;;;;;;5.98;87.45;99946.38;5140370;27;20027;-64
2023/12/20 07:37:54;;;;;;;21.90;14.05;;;;;;;6.22;87.57;99946.94;5141001;27;20043;-64
2023/12/20 07:40:19;;;;;;;26.77;16.02;;;;;;;6.30;87.18;99951.56;5140895;27;20035;-65
2023/12/20 07:42:45;;;;;;;22.25;14.13;;;;;;;6.24;87.15;99944.19;5140933;27;20054;-67
2023/12/20 07:45:13;;;;;;;22.55;16.42;;;;;;;6.44;87.40;99955.66;5141351;27;20042;-64
2023/12/20 07:47:38;;;;;;;20.58;13.93;;;;;;;6.45;86.34;99950.28;5140850;27;20039;-64
2023/12/20 07:50:04;;;;;;;35.60;18.33;;;;;;;6.45;87.53;99947.66;5140555;27;20219;-67
2023/12/20 07:52:30;;;;;;;29.23;16.20;;;;;;;6.54;87.04;99944.22;5140755;27;20038;-66
2023/12/20 07:54:55;;;;;;;40.17;28.88;;;;;;;6.74;87.06;99945.13;5140925;27;20099;-64
2023/12/20 07:57:21;;;;;;;39.42;29.55;;;;;;;6.72;86.34;99939.19;5140628;27;20031;-66
2023/12/20 07:59:46;;;;;;;27.45;18.17;;;;;;;6.86;86.59;99935.34;5141253;27;20034;-64
2023/12/20 08:02:12;;;;;;;23.83;15.90;;;;;;;7.03;86.06;99932.06;5140150;27;20050;-64
2023/12/20 08:04:37;;;;;;;37.55;28.88;;;;;;;6.98;86.02;99934.28;5141041;27;20027;-66
2023/12/20 08:07:03;;;;;;;37.05;30.15;;;;;;;7.13;86.02;99940.00;5140210;27;20035;-63
2023/12/20 08:09:29;;;;;;;42.28;33.08;;;;;;;7.26;85.74;99936.13;5140126;27;20116;-66
2023/12/20 08:11:55;;;;;;;45.90;32.08;;;;;;;7.29;85.73;99925.38;5140813;27;20047;-64
2023/12/20 08:14:20;;;;;;;43.70;33.33;;;;;;;7.41;85.40;99926.06;5140119;27;20034;-66
2023/12/20 08:16:46;;;;;;;44.72;32.08;;;;;;;7.24;86.21;99919.63;5139665;27;20421;-66
2023/12/20 08:19:11;;;;;;;43.75;29.80;;;;;;;7.36;86.23;99920.38;5139158;27;20236;-64
2023/12/20 08:21:36;;;;;;;38.92;27.63;;;;;;;7.48;85.25;99915.81;5139518;27;20035;-64
2023/12/20 08:24:02;;;;;;;36.20;26.75;;;;;;;7.43;85.26;99913.59;5139467;27;20035;-66
2023/12/20 08:26:28;;;;;;;28.40;19.65;;;;;;;7.28;86.57;99904.41;5139626;27;20066;-64
2023/12/20 08:28:53;;;;;;;30.38;21.60;;;;;;;7.44;87.07;99911.78;5139655;27;20034;-66
2023/12/20 08:31:19;;;;;;;27.90;20.33;;;;;;;7.54;87.10;99908.19;5140666;27;20039;-66
2023/12/20 08:33:46;;;;;;;29.00;18.33;;;;;;;7.56;87.30;99900.13;5140337;27;20441;-64
2023/12/20 08:36:12;;;;;;;34.70;21.70;;;;;;;7.39;88.23;99895.56;5140628;27;20441;-66
2023/12/20 08:38:37;;;;;;;34.35;21.98;;;;;;;7.51;88.89;99899.72;5140220;27;20051;-67
2023/12/20 08:41:05;;;;;;;36.17;22.55;;;;;;;7.67;88.59;99903.47;5140184;27;20207;-65
2023/12/20 08:43:31;;;;;;;27.05;18.08;;;;;;;7.63;88.61;99895.97;5139760;27;20331;-66
2023/12/20 08:45:57;;;;;;;30.20;17.90;;;;;;;7.74;88.61;99880.00;5139986;27;20060;-67
2023/12/20 08:48:22;;;;;;;27.00;16.55;;;;;;;7.62;89.25;99873.22;5139982;27;20066;-67
2023/12/20 08:50:49;;;;;;;28.90;17.83;;;;;;;7.78;89.07;99865.59;5139959;27;20035;-66
2023/12/20 08:53:16;;;;;;;28.13;17.88;;;;;;;7.87;88.39;99869.19;5139315;27;20034;-64
2023/12/20 08:55:41;;;;;;;31.55;19.02;;;;;;;7.84;88.17;99862.38;5139589;27;20039;-64
2023/12/20 08:58:08;;;;;;;27.23;18.27;;;;;;;7.82;88.31;99848.50;5139818;27;20102;-65
2023/12/20 09:00:36;;;;;;;29.17;17.65;;;;;;;8.04;88.15;99852.63;5140164;27;20046;-66
2023/12/20 09:03:02;;;;;;;24.85;16.60;;;;;;;8.16;87.52;99845.38;5140193;27;20038;-67
2023/12/20 09:05:28;;;;;;;28.38;18.40;;;;;;;7.98;87.63;99840.00;5139658;27;20027;-66
2023/12/20 09:07:54;;;;;;;31.35;18.25;;;;;;;8.12;87.94;99836.91;5139047;27;20049;-65
2023/12/20 09:10:22;;;;;;;25.45;16.88;;;;;;;8.23;87.26;99827.97;5139856;27;20098;-64
2023/12/20 09:12:51;;;;;;;27.27;19.20;;;;;;;8.32;88.04;99819.19;5140129;27;20249;-66
2023/12/20 09:15:17;;;;;;;26.00;17.10;;;;;;;8.34;87.33;99808.56;5140052;27;20117;-65
2023/12/20 09:17:43;;;;;;;30.45;19.05;;;;;;;8.35;88.03;99807.59;5140073;27;20031;-67
2023/12/20 09:20:09;;;;;;;43.60;22.08;;;;;;;8.47;88.89;99793.22;5139985;27;20035;-66
2023/12/20 09:22:35;;;;;;;24.63;17.35;;;;;;;8.55;88.55;99788.03;5139518;27;20043;-64
2023/12/20 09:25:01;;;;;;;30.88;17.60;;;;;;;8.60;88.64;99791.06;5139157;27;20038;-66
2023/12/20 09:27:27;;;;;;;29.20;17.92;;;;;;;8.63;87.49;99785.47;5138793;27;20167;-67
2023/12/20 09:29:53;;;;;;;22.00;15.02;;;;;;;8.52;88.99;99785.69;5139481;27;20051;-64
2023/12/20 09:32:20;;;;;;;23.70;15.13;;;;;;;8.48;89.34;99769.31;5139717;27;20037;-65
2023/12/20 09:34:45;;;;;;;29.02;15.98;;;;;;;8.42;89.36;99774.38;5139453;27;20288;-64
2023/12/20 09:37:11;;;;;;;22.50;14.80;;;;;;;8.44;90.36;99767.97;5139184;27;20438;-66
2023/12/20 09:39:36;;;;;;;29.63;17.17;;;;;;;8.51;90.26;99771.66;5139979;27;20042;-64
2023/12/20 09:42:03;;;;;;;30.08;17.35;;;;;;;8.62;90.08;99768.81;5139272;27;20045;-64
2023/12/20 09:44:29;;;;;;;19.85;12.43;;;;;;;8.61;90.20;99753.13;5139192;27;20050;-64
2023/12/20 09:46:55;;;;;;;17.92;12.63;;;;;;;8.67;89.62;99755.16;5139198;27;20627;-65
2023/12/20 09:49:21;;;;;;;20.73;13.35;;;;;;;8.73;89.38;99749.28;5139455;27;20035;-66
2023/12/20 09:51:47;;;;;;;26.02;15.85;;;;;;;8.76;88.17;99732.31;5139192;27;20102;-66
2023/12/20 09:54:17;;;;;;;25.20;16.00;;;;;;;8.90;87.29;99742.34;5138918;27;20027;-66
2023/12/20 09:56:42;;;;;;;23.52;15.07;;;;;;;8.95;87.17;99737.44;5139781;27;20046;-67
2023/12/20 09:59:08;;;;;;;28.48;16.85;;;;;;;9.02;87.57;99724.47;5138648;27;20043;-63
2023/12/20 10:01:35;;;;;;;30.73;18.58;;;;;;;9.02;87.73;99719.19;5138383;27;20047;-64
2023/12/20 10:04:01;;;;;;;30.90;19.45;;;;;;;8.96;87.34;99713.53;5138426;27;20062;-64
2023/12/20 10:06:27;;;;;;;32.88;19.67;;;;;;;8.97;87.56;99719.63;5138474;27;20035;-64
2023/12/20 10:08:53;;;;;;;34.10;19.55;;;;;;;8.77;89.40;99711.06;5138556;27;20103;-66
2023/12/20 10:11:19;;;;;;;30.20;18.25;;;;;;;8.75;89.79;99704.25;5139075;27;20035;-66
2023/12/20 10:13:47;;;;;;;33.28;19.70;;;;;;;8.82;89.87;99708.78;5138770;27;20095;-65
2023/12/20 10:16:13;;;;;;;34.33;20.10;;;;;;;8.93;88.75;99694.53;5139312;27;20102;-64
2023/12/20 10:18:39;;;;;;;37.70;19.15;;;;;;;8.95;89.59;99697.84;5139487;27;20054;-66
2023/12/20 10:21:05;;;;;;;30.90;18.00;;;;;;;8.99;89.34;99687.78;5139812;27;20023;-66
2023/12/20 10:23:31;;;;;;;31.45;18.05;;;;;;;9.03;89.37;99684.69;5139236;27;20038;-64
2023/12/20 10:26:00;;;;;;;31.35;19.92;;;;;;;9.10;88.74;99679.63;5138901;27;20062;-66
2023/12/20 10:28:28;;;;;;;27.23;18.50;;;;;;;9.10;89.10;99675.16;5138095;27;20076;-66
2023/12/20 10:30:57;;;;;;;30.55;18.45;;;;;;;9.02;90.05;99680.41;5138263;27;20078;-64
2023/12/20 10:33:25;;;;;;;32.10;18.50;;;;;;;9.16;89.96;99676.38;5141981;27;20034;-64
2023/12/20 10:35:52;;;;;;;29.23;18.48;;;;;;;9.16;89.18;99669.28;5143477;27;20031;-64
2023/12/20 10:38:17;;;;;;;31.15;18.83;;;;;;;9.16;89.49;99671.09;5143075;27;20109;-66
2023/12/20 10:40:45;;;;;;;35.08;19.42;;;;;;;9.21;88.73;99658.25;5143441;27;20347;-64
2023/12/20 10:43:11;;;;;;;27.48;20.48;;;;;;;9.22;88.48;99657.25;5142953;27;20035;-64
2023/12/20 10:45:36;;;;;;;29.05;19.13;;;;;;;9.24;87.52;99653.47;5143152;27;20179;-64
2023/12/20 10:48:02;;;;;;;33.10;19.77;;;;;;;9.35;86.25;99639.16;5142941;27;20055;-67
2023/12/20 10:50:29;;;;;;;33.05;21.13;;;;;;;9.41;86.83;99643.03;5143239;27;20430;-66
2023/12/20 10:52:55;;;;;;;34.75;19.80;;;;;;;9.48;85.84;99629.03;5143082;27;20344;-65
2023/12/20 10:55:25;;;;;;;33.00;20.60;;;;;;;9.50;86.12;99626.22;5143295;27;20115;-66
2023/12/20 10:58:08;;;;;;;28.67;18.38;;;;;;;9.52;85.19;99613.69;5142376;27;20070;-66
2023/12/20 11:00:40;;;;;;;29.10;17.55;;;;;;;9.40;84.07;99609.66;5143114;27;20350;-66
2023/12/20 11:03:09;;;;;;;30.92;18.88;;;;;;;9.38;84.48;99607.19;5142667;27;20057;-66
2023/12/20 11:05:58;;;;;;;36.40;21.00;;;;;;;9.45;83.69;99613.47;5142886;27;20355;-67
2023/12/20 11:08:54;;;;;;;36.60;21.33;;;;;;;9.50;84.16;99608.56;5142762;27;20070;-65
2023/12/20 11:11:43;;;;;;;30.38;17.75;;;;;;;9.54;84.08;99595.84;5122386;27;20054;-66
2023/12/20 11:14:17;;;;;;;28.90;18.75;;;;;;;9.42;84.03;99590.03;5142314;27;20038;-67
2023/12/20 11:16:42;;;;;;;23.88;17.80;;;;;;;9.48;83.18;99585.91;5142876;27;20023;-67